AirNav   Air Wisconsin Up To $57,000 Bonus
 
 381 users online  

T67 Hicks Airfield
Fort Worth, Texas, USA

GOING TO FORT WORTH?


FAA INFORMATION EFFECTIVE 30 JANUARY 2020

Location

FAA Identifier: T67
Lat/Long: 32-55-52.4520N 097-24-42.0690W
32-55.874200N 097-24.701150W
32.9312367,-97.4116858
(estimated)
Elevation: 855 ft. / 261 m (estimated)
Variation: 07E (1986)
From city: 14 miles NW of FORT WORTH, TX
Time zone: UTC -6 (UTC -5 during Daylight Saving Time)
Zip code: 76052

Airport Operations

Airport use: Open to the public
Activation date: 04/1986
Control tower: no
ARTCC: FORT WORTH CENTER
FSS: FORT WORTH FLIGHT SERVICE STATION
NOTAMs facility: FTW (NOTAM-D service available)
Attendance: UNATNDD
Wind indicator: yes
Segmented circle: no
Lights: SS-SR
Beacon: white-green (lighted land airport)
Operates sunset to sunrise.

Airport Communications

CTAF/UNICOM: 123.05
CLEARANCE DELIVERY: 125.9
WX ASOS at AFW (6 nm NE): PHONE 817-491-6188
WX ASOS at FTW (7 nm S): PHONE 817-740-3346
WX ASOS at DFW (19 nm E): PHONE 972-615-2608
WX ASOS at DTO (19 nm NE): 119.325 (940-383-8457)

Nearby radio navigation aids

VOR radial/distance  VOR name  Freq  Var
FUZr276/12.0RANGER VORTAC115.7006E
TTTr275/19.1MAVERICK VOR/DME113.1006E
CVEr269/25.7COWBOY VOR/DME116.2006E
MQPr058/32.0MILLSAP VORTAC117.7009E

 
NDB name  Hdg/Dist  Freq  Var  ID
MUFIN312/3.036508EFT ..-. -

Airport Services

Fuel available: 100LL
FUEL AVBL 24 HRS WITH CREDIT CARD.
Parking: tiedowns
Airframe service: MAJOR
Powerplant service: MAJOR

Runway Information

Runway 14/32

Dimensions: 3740 x 60 ft. / 1140 x 18 m
Surface: asphalt, in good condition
Runway edge lights: medium intensity
RUNWAY 14  RUNWAY 32
Traffic pattern: leftleft
Displaced threshold: 340 ft.191 ft.
Markings: basic, in good conditionbasic, in good condition
Visual slope indicator: 2-light PAPI on left (3.00 degrees glide path)2-light PAPI on left (3.00 degrees glide path)
Obstructions: 27 ft. rr, 201 ft. from runway, 30 ft. right of centerline
25 FT RR 60 FT R.
15 ft. road, 201 ft. from runway, 30 ft. left of centerline
15 FT ROAD 55-199 FT FM THLD; 30 FT L; 25 FT RR 122 FT L.

Airport Ownership and Management from official FAA records

Ownership: Privately-owned
Owner: HICKS AIRFIELD PILOTS ASSN
100 AVIATOR DR.
FORT WORTH, TX 76179
Manager: BROCK STREET
100 AVIATOR DR.
FORT WORTH, TX 76179
Phone (817) 779-4664

Airport Operational Statistics

Aircraft based on the field: 478
Single engine airplanes: 450
Multi engine airplanes: 22
Helicopters: 4
Ultralights: 2
    
Aircraft operations: avg 296/day *
90% local general aviation
10% transient general aviation
* for 12-month period ending 30 December 2018

Additional Remarks

RWY 14/32 RR PARALLEL & ADJ TO RWY ON SW SIDE WI PRIMARY SFC.
ULTRALIGHT OPNS INVOF ARPT.
CALM WIND RWY 14.
UNCONTROLLED VEHICLE TRAFFIC INVOF HANGARS & ON TWYS.
FOR CD CTC REGIONAL APCH AT 972-615-2799.

Instrument Procedures

There are no published instrument procedures at T67.

Some nearby airports with instrument procedures:

4T2 - Kenneth Copeland Airport (5 nm NW)
KAFW - Fort Worth Alliance Airport (6 nm NE)
KFTW - Fort Worth Meacham International Airport (7 nm S)
KNFW - Fort Worth Naval Air Station JRB (Carswell Field) Airport (10 nm S)
KWEA - Parker County Airport (18 nm SW)
KDFW - Dallas-Fort Worth International Airport (19 nm E)
KDTO - Denton Enterprise Airport (19 nm NE)
 
Loc | Ops | Rwys | IFR | FBO | Links
Com | Nav | Svcs | Stats | Notes
Area around T67 (Hicks Airfield)
 
Road maps at: MapQuest Bing Google
 
Aerial photo
WARNING: Photo may not be current or correct
Aerial photo of T67 (Hicks Airfield)
Photo taken 17-Jul-2007

Do you have a better or more recent aerial photo of Hicks Airfield that you would like to share? If so, please send us your photo.

 
Sectional chart

 
Airport distance calculator
Flying to Hicks Airfield? Find the distance to fly.

From to T67

Sunrise and sunset
Times for 24-Feb-2020
 Local
(UTC-6)
 Zulu
(UTC)
Morning civil twilight06:3912:39
Sunrise07:0413:04
Sunset18:2100:21
Evening civil twilight18:4600:46

Current date and time
Zulu (UTC)  24-Feb-2020 08:29:36
Local (UTC-6)  24-Feb-2020 02:29:36
 
METAR
KAFW 
5nm NE 
240753Z 20014KT 10SM FEW012 BKN250 16/14 A2975 RMK AO2 SLP069 T01610139
KFTW 
6nm S 
240739Z 20011G19KT 10SM FEW010 15/14 A2977 RMK AO2 T01500144 $
KNFW 
10nm S 
240752Z AUTO 21014KT CLR 22/14 A2977 RMK AO2 SLP066 T02220139 VISNO N $
KDTO 
19nm NE 
240753Z AUTO 20017KT 10SM CLR 16/14 A2975 RMK AO2 SLP069 T01560139
KDFW 
20nm E 
240810Z 20015KT 10SM SCT015 SCT250 16/14 A2974 RMK AO2 T01560144
TAF
KAFW 
5nm NE 
240537Z 2406/2506 19015KT P6SM SCT005 BKN007 TEMPO 2406/2408 BKN005 FM240800 21016KT P6SM BKN180 FM241200 24017KT P6SM FEW250 FM241500 27017G27KT P6SM FEW035 FM241800 30018G28KT P6SM SCT035 FM242200 33011KT P6SM FEW250
KFTW 
6nm S 
240537Z 2406/2506 19015KT P6SM SCT005 BKN007 TEMPO 2406/2408 BKN005 FM240800 21016KT P6SM BKN180 FM241200 24017KT P6SM FEW250 FM241500 27017G27KT P6SM FEW035 FM241800 30018G28KT P6SM SCT035 FM242200 33011KT P6SM FEW250
KNFW 
10nm S 
2315/2415 18014KT 9999 SCT016 BKN050 OVC100 651009 651909 QNH2979INS BECMG 2322/2400 18018G25KT 6000 BR BKN016 OVC100 600000 550004 QNH2979INS BECMG 2401/2403 20018G27KT 6000 BR BKN016 OVC100 550004 QNH2972INS BECMG 2407/2409 22018G25KT 6000 BR SCT016 SCT300 500000 QNH2972INS BECMG 2410/2412 25014KT 8000 BR FEW016 FEW300 QNH2976INS BECMG 2413/2415 27015G21KT 9999 NSW SKC QNH2980INS T12/2315Z T15/2409Z FN20070
KDFW 
20nm E 
240537Z 2406/2512 19015KT P6SM SCT005 BKN007 TEMPO 2406/2409 BKN005 FM240900 21016KT P6SM BKN180 FM241200 24017KT P6SM FEW250 FM241500 27017G27KT P6SM FEW035 FM241800 30018G28KT P6SM SCT035 FM242200 33011KT P6SM FEW250 FM250600 02010KT P6SM SCT050
NOTAMs
Click for the latest NOTAMs
NOTAMs are issued by the DoD/FAA and will open in a separate window not controlled by AirNav.

 

 
 

FBO, Fuel Providers, and Aircraft Ground Support

  
 Business Name 
 
 Contact 
 
 Services / Description 
 
Fuel Prices
 
Comments
  
Rio Concho Aviation 817-233-1058
[email]
Aviation fuel, Aircraft parking (ramp or tiedown), Passenger terminal and lounge, Aircraft charters, Catering, Pilot supplies, Public telephone, Restrooms, Restaurant

More info about Rio Concho Aviation
Avfuel
100LL
SS $4.54 
 Updated 29-Jan-2020
 
   2 read write
SS=Self service
Update Fuel Prices
 

Would you like to see your business listed on this page?

 If your business provides an interesting product or service to pilots, flight crews, aircraft, or users of the Hicks Airfield, you should consider listing it here.  To start the listing process, click on the button below
 
Add a business
 

Other Pages about Hicks Airfield

www.t67.org
 
Update a link
 
Copyright © AirNav, LLC. All rights reserved. Privacy Policy  Contact